createdAt,value
2018-03-03T00:00:58.921Z,78.60
2018-03-03T00:03:26.191Z,93.97
2018-03-03T00:05:53.413Z,69.82
2018-03-03T00:08:21.457Z,78.43
2018-03-03T00:10:48.014Z,58.22
2018-03-03T00:13:14.533Z,48.47
2018-03-03T00:15:41.080Z,50.60
2018-03-03T00:18:07.581Z,58.72
2018-03-03T00:20:38.084Z,41.88
2018-03-03T00:23:04.585Z,54.80
2018-03-03T00:25:31.078Z,45.60
2018-03-03T00:27:57.608Z,50.78
2018-03-03T00:30:24.121Z,57.67
2018-03-03T00:32:51.352Z,80.68
2018-03-03T00:35:17.878Z,58.33
2018-03-03T00:37:44.403Z,79.80
2018-03-03T00:40:10.928Z,66.22
2018-03-03T00:42:37.416Z,47.92
2018-03-03T00:45:04.868Z,95.43
2018-03-03T00:47:32.306Z,64.60
2018-03-03T00:49:58.817Z,61.35
2018-03-03T00:52:25.292Z,49.75
2018-03-03T00:54:51.812Z,66.47
2018-03-03T00:57:18.332Z,57.92
2018-03-03T00:59:44.944Z,71.70
2018-03-03T01:02:11.469Z,71.55
2018-03-03T01:04:38.001Z,77.50
2018-03-03T01:07:04.492Z,50.03
2018-03-03T01:09:31.038Z,47.03
2018-03-03T01:11:57.553Z,74.50
2018-03-03T01:14:24.080Z,69.57
2018-03-03T01:16:50.556Z,54.92
2018-03-03T01:19:17.802Z,84.43
2018-03-03T01:21:45.036Z,80.57
2018-03-03T01:24:11.541Z,56.05
2018-03-03T01:26:40.044Z,58.15
2018-03-03T01:29:07.345Z,63.22
2018-03-03T01:31:34.629Z,80.07
2018-03-03T01:34:01.133Z,60.53
2018-03-03T01:36:28.392Z,53.50
2018-03-03T01:38:57.729Z,51.35
2018-03-03T01:41:37.721Z,90.87
2018-03-03T01:44:04.256Z,63.03
2018-03-03T01:46:30.756Z,44.45
2018-03-03T01:48:57.313Z,52.53
2018-03-03T01:51:36.025Z,40.58
2018-03-03T01:54:02.584Z,52.80
2018-03-03T01:56:29.081Z,44.45
2018-03-03T01:58:59.497Z,34.13
2018-03-03T02:01:26.010Z,48.97
2018-03-03T02:03:53.294Z,45.30
2018-03-03T02:06:19.874Z,58.10
2018-03-03T02:08:46.463Z,60.80
2018-03-03T02:11:13.036Z,41.75
2018-03-03T02:13:39.529Z,30.37
2018-03-03T02:16:06.071Z,51.15
2018-03-03T02:18:32.614Z,45.78
2018-03-03T02:20:59.146Z,39.50
2018-03-03T02:23:25.697Z,43.35
2018-03-03T02:25:52.228Z,68.37
2018-03-03T02:28:18.752Z,106.37
2018-03-03T02:30:45.277Z,110.20
2018-03-03T02:33:12.552Z,89.55
2018-03-03T02:35:39.062Z,50.10
2018-03-03T02:38:05.563Z,100.70
2018-03-03T02:40:32.070Z,79.97
2018-03-03T02:42:58.614Z,52.75
2018-03-03T02:45:25.157Z,110.70
2018-03-03T02:47:51.695Z,94.87
2018-03-03T02:50:18.358Z,103.03
2018-03-03T02:52:44.935Z,114.22
2018-03-03T02:55:11.467Z,95.47
2018-03-03T02:57:37.981Z,103.72
2018-03-03T03:00:04.514Z,96.00
2018-03-03T03:02:31.816Z,112.78
2018-03-03T03:04:58.316Z,58.10
2018-03-03T03:07:25.615Z,55.28
2018-03-03T03:09:52.210Z,53.85
2018-03-03T03:12:18.793Z,99.62
2018-03-03T03:14:45.319Z,47.38
2018-03-03T03:17:12.630Z,46.40
2018-03-03T03:19:39.946Z,42.40
2018-03-03T03:22:06.502Z,55.88
2018-03-03T03:24:33.009Z,83.78
2018-03-03T03:26:59.569Z,35.10
2018-03-03T03:29:26.111Z,61.17
2018-03-03T03:31:52.662Z,62.88
2018-03-03T03:34:19.199Z,33.40
2018-03-03T03:36:46.491Z,110.68
2018-03-03T03:39:13.019Z,109.80
2018-03-03T03:41:43.410Z,106.72
2018-03-03T03:44:09.930Z,89.03
2018-03-03T03:46:36.475Z,89.95
2018-03-03T03:49:03.768Z,94.47
2018-03-03T03:51:30.344Z,100.12
2018-03-03T03:53:56.982Z,77.87
2018-03-03T03:56:24.507Z,88.95
2018-03-03T03:58:51.796Z,44.65
2018-03-03T04:01:18.361Z,60.22
2018-03-03T04:03:44.876Z,31.17
2018-03-03T04:06:11.395Z,36.78
2018-03-03T04:08:38.686Z,32.60
2018-03-03T04:11:05.998Z,30.40
2018-03-03T04:13:32.583Z,28.87
2018-03-03T04:16:00.012Z,63.63
2018-03-03T04:18:26.576Z,55.17
2018-03-03T04:20:53.843Z,47.00
2018-03-03T04:23:20.527Z,68.45
2018-03-03T04:25:47.074Z,48.40
2018-03-03T04:28:13.685Z,52.83
2018-03-03T04:30:40.233Z,43.75
2018-03-03T04:33:06.834Z,60.83
2018-03-03T04:35:34.272Z,65.53
2018-03-03T04:38:00.863Z,68.57
2018-03-03T04:40:27.408Z,72.97
2018-03-03T04:42:53.978Z,60.50
2018-03-03T04:45:20.575Z,119.37
2018-03-03T04:47:47.217Z,112.12
2018-03-03T04:50:13.774Z,69.57
2018-03-03T04:52:40.362Z,54.65
2018-03-03T04:55:06.930Z,51.60
2018-03-03T04:57:33.538Z,57.55
2018-03-03T05:03:20.673Z,68.37
2018-03-03T05:06:07.880Z,78.70
2018-03-03T05:08:35.433Z,86.32
2018-03-03T05:11:02.110Z,59.40
2018-03-03T05:13:35.357Z,80.75
2018-03-03T05:16:08.822Z,110.80
2018-03-03T05:21:45.562Z,66.57
2018-03-03T05:24:18.404Z,101.00
2018-03-03T05:27:01.036Z,75.82
2018-03-03T05:29:33.851Z,73.25
2018-03-03T05:32:06.442Z,77.72
2018-03-03T05:34:39.921Z,63.28
2018-03-03T05:37:16.438Z,73.78
2018-03-03T05:39:49.107Z,74.32
2018-03-03T05:45:25.663Z,91.87
2018-03-03T05:47:58.354Z,59.58
2018-03-03T05:50:30.981Z,81.47
2018-03-03T05:53:03.530Z,114.65
2018-03-03T05:55:36.049Z,81.80
2018-03-03T06:01:04.452Z,42.22
2018-03-03T06:03:37.138Z,51.22
2018-03-03T06:06:21.515Z,121.40
2018-03-03T06:09:03.821Z,87.93
2018-03-03T06:11:31.162Z,49.90
2018-03-03T06:13:58.531Z,70.90
2018-03-03T06:16:25.940Z,104.38
2018-03-03T06:18:53.211Z,58.47
2018-03-03T06:21:19.780Z,66.32
2018-03-03T06:23:48.434Z,95.20
2018-03-03T06:26:14.966Z,78.82
2018-03-03T06:28:41.521Z,59.42
2018-03-03T06:31:08.149Z,74.55
2018-03-03T06:33:34.703Z,72.45
2018-03-03T06:36:02.762Z,75.70
2018-03-03T06:38:29.330Z,91.15
2018-03-03T06:40:55.888Z,101.07
2018-03-03T06:43:23.182Z,77.72
2018-03-03T06:45:49.814Z,102.28
2018-03-03T06:48:16.356Z,106.78
2018-03-03T06:50:42.852Z,112.03
2018-03-03T06:53:10.141Z,81.30
2018-03-03T06:55:36.658Z,65.78
2018-03-03T06:58:03.223Z,67.65
2018-03-03T07:00:29.761Z,104.90
2018-03-03T07:02:56.334Z,86.10
2018-03-03T07:05:22.847Z,64.37
2018-03-03T07:07:49.773Z,60.45
2018-03-03T07:10:16.353Z,77.60
2018-03-03T07:12:42.987Z,66.50
2018-03-03T07:18:04.218Z,58.28
2018-03-03T07:20:30.734Z,59.38
2018-03-03T07:22:57.271Z,89.03
2018-03-03T07:25:24.738Z,71.78
2018-03-03T07:27:51.302Z,58.58
2018-03-03T07:30:18.543Z,63.83
2018-03-03T07:32:45.079Z,54.08
2018-03-03T07:35:11.618Z,66.32
2018-03-03T07:37:39.227Z,58.90
2018-03-03T07:40:05.760Z,54.03
2018-03-03T07:42:32.341Z,46.95
2018-03-03T07:44:59.646Z,65.75
2018-03-03T07:47:26.167Z,61.53
2018-03-03T07:49:52.822Z,48.55
2018-03-03T07:52:19.338Z,74.00
2018-03-03T07:54:50.872Z,68.07
2018-03-03T07:57:17.488Z,58.50
2018-03-03T07:59:44.042Z,48.53
2018-03-03T08:02:10.759Z,69.30
2018-03-03T08:04:37.381Z,58.13
2018-03-03T08:07:03.973Z,58.87
2018-03-03T08:09:30.923Z,62.85
2018-03-03T08:11:58.217Z,64.18
2018-03-03T08:14:24.807Z,66.60
2018-03-03T08:16:51.354Z,66.20
2018-03-03T08:19:17.972Z,56.88
2018-03-03T08:21:44.504Z,59.40
2018-03-03T08:24:11.078Z,66.45
2018-03-03T08:26:37.647Z,42.72
2018-03-03T08:29:04.232Z,55.28
2018-03-03T08:31:31.503Z,61.50
2018-03-03T08:33:58.809Z,65.78
2018-03-03T08:39:22.268Z,58.08
2018-03-03T08:41:48.684Z,60.70
2018-03-03T08:44:15.885Z,54.97
2018-03-03T08:46:42.301Z,48.00
2018-03-03T08:49:08.773Z,55.53
2018-03-03T08:51:35.223Z,51.22
2018-03-03T08:54:01.681Z,55.42
2018-03-03T08:56:28.115Z,62.20
2018-03-03T08:58:54.584Z,43.15
2018-03-03T09:01:21.060Z,42.35
2018-03-03T09:03:48.244Z,48.40
2018-03-03T09:06:14.704Z,39.37
2018-03-03T09:08:41.162Z,40.67
2018-03-03T09:11:07.644Z,55.57
2018-03-03T09:13:34.091Z,52.23
2018-03-03T09:16:00.559Z,43.73
2018-03-03T09:18:27.661Z,54.47
2018-03-03T09:20:54.135Z,53.27
2018-03-03T09:23:20.591Z,53.57
2018-03-03T09:25:47.012Z,38.30
2018-03-03T09:28:13.482Z,55.20
2018-03-03T09:30:57.283Z,48.03
2018-03-03T09:33:23.809Z,46.87
2018-03-03T09:35:51.603Z,52.60
2018-03-03T09:38:18.092Z,60.60
2018-03-03T09:40:45.174Z,46.83
2018-03-03T09:43:11.684Z,60.03
2018-03-03T09:45:38.156Z,49.20
2018-03-03T09:48:04.636Z,41.10
2018-03-03T09:50:31.320Z,55.80
2018-03-03T09:52:59.305Z,51.73
2018-03-03T09:55:26.679Z,45.83
2018-03-03T09:57:53.445Z,58.10
2018-03-03T10:00:19.915Z,46.23
2018-03-03T10:02:46.409Z,52.10
2018-03-03T10:05:13.572Z,51.30
2018-03-03T10:07:40.009Z,47.03
2018-03-03T10:10:06.496Z,48.80
2018-03-03T10:12:32.952Z,47.63
2018-03-03T10:14:59.529Z,57.70
2018-03-03T10:17:26.024Z,58.93
2018-03-03T10:19:53.208Z,49.73
2018-03-03T10:22:19.638Z,47.27
2018-03-03T10:24:46.065Z,49.37
2018-03-03T10:27:12.854Z,52.73
2018-03-03T10:29:39.276Z,61.37
2018-03-03T10:32:05.922Z,60.70
2018-03-03T10:34:32.422Z,49.47
2018-03-03T10:36:58.955Z,48.97
2018-03-03T10:39:25.453Z,49.07
2018-03-03T10:41:51.893Z,56.83
2018-03-03T10:44:18.410Z,52.93
2018-03-03T10:46:44.889Z,47.27
2018-03-03T10:49:11.356Z,52.80
2018-03-03T10:51:37.825Z,50.33
2018-03-03T10:54:06.028Z,46.13
2018-03-03T10:56:33.226Z,51.63
2018-03-03T10:59:03.764Z,52.13
2018-03-03T11:01:30.292Z,48.87
2018-03-03T11:03:57.574Z,46.47
2018-03-03T11:06:24.323Z,44.10
2018-03-03T11:08:51.139Z,48.47
2018-03-03T11:11:17.736Z,53.20
2018-03-03T11:13:48.180Z,51.53
2018-03-03T11:16:15.180Z,50.07
2018-03-03T11:18:41.932Z,46.60
2018-03-03T11:21:08.835Z,48.53
2018-03-03T11:23:35.547Z,46.47
2018-03-03T11:26:02.412Z,44.43
2018-03-03T11:28:29.977Z,40.67
2018-03-03T11:30:56.759Z,45.80
2018-03-03T11:33:24.176Z,39.57
2018-03-03T11:35:51.262Z,48.93
2018-03-03T11:38:18.916Z,47.03
2018-03-03T11:40:46.821Z,39.43
2018-03-03T11:43:13.556Z,37.27
2018-03-03T11:45:40.417Z,37.77
2018-03-03T11:48:11.832Z,46.60
2018-03-03T11:50:39.026Z,41.37
2018-03-03T11:53:05.441Z,37.03
2018-03-03T11:55:31.869Z,35.07
2018-03-03T11:57:59.020Z,31.80
2018-03-03T12:00:25.460Z,40.30
2018-03-03T12:02:52.632Z,33.00
2018-03-03T12:05:19.160Z,36.13
2018-03-03T12:07:46.261Z,33.90
2018-03-03T12:10:13.161Z,47.23
2018-03-03T12:12:39.972Z,51.73
2018-03-03T12:15:06.883Z,41.00
2018-03-03T12:17:33.379Z,49.37
2018-03-03T12:19:59.906Z,35.60
2018-03-03T12:22:26.816Z,40.60
2018-03-03T12:24:53.598Z,39.47
2018-03-03T12:27:20.390Z,34.17
2018-03-03T12:29:46.949Z,36.37
2018-03-03T12:32:13.809Z,38.97
2018-03-03T12:34:41.060Z,37.87
2018-03-03T12:37:08.860Z,44.90
2018-03-03T12:39:36.568Z,36.03
2018-03-03T12:42:03.500Z,34.87
2018-03-03T12:44:29.992Z,45.90
2018-03-03T12:46:56.474Z,41.10
2018-03-03T12:49:23.902Z,44.27
2018-03-03T12:51:58.885Z,42.47
2018-03-03T12:54:25.987Z,53.30
2018-03-03T12:57:02.976Z,46.20
2018-03-03T12:59:30.343Z,41.93
2018-03-03T13:01:57.476Z,52.80
2018-03-03T13:04:24.219Z,47.17
2018-03-03T13:06:51.318Z,54.60
2018-03-03T13:09:18.366Z,47.17
2018-03-03T13:11:46.532Z,53.07
2018-03-03T13:14:14.025Z,49.53
2018-03-03T13:16:41.083Z,45.60
2018-03-03T13:19:09.354Z,58.07
2018-03-03T13:21:42.915Z,152.00
2018-03-03T13:24:10.037Z,65.83
2018-03-03T13:26:45.790Z,43.63
2018-03-03T13:29:12.912Z,51.13
2018-03-03T13:31:39.612Z,45.67
2018-03-03T13:34:06.259Z,49.47
2018-03-03T13:36:32.978Z,43.57
2018-03-03T13:38:59.768Z,49.90
2018-03-03T13:41:26.420Z,49.83
2018-03-03T13:43:54.005Z,48.90
2018-03-03T13:46:20.756Z,43.80
2018-03-03T13:48:47.719Z,42.10
2018-03-03T13:51:14.343Z,50.00
2018-03-03T13:53:41.218Z,39.27
2018-03-03T13:56:07.910Z,42.73
2018-03-03T13:58:34.769Z,49.73
2018-03-03T14:01:01.588Z,46.03
2018-03-03T14:03:28.313Z,35.63
2018-03-03T14:05:55.049Z,33.33
2018-03-03T14:08:21.740Z,45.77
2018-03-03T14:10:49.275Z,46.97
2018-03-03T14:13:16.036Z,50.90
2018-03-03T14:15:42.702Z,50.67
2018-03-03T14:18:09.949Z,47.27
2018-03-03T14:20:36.543Z,54.83
2018-03-03T14:23:03.084Z,54.30
2018-03-03T14:25:29.601Z,45.47
2018-03-03T14:27:56.009Z,42.40
2018-03-03T14:30:23.227Z,50.83
2018-03-03T14:32:49.655Z,40.87
2018-03-03T14:35:16.142Z,35.47
2018-03-03T14:37:43.321Z,54.40
2018-03-03T14:40:09.762Z,47.60
2018-03-03T14:42:36.296Z,48.53
2018-03-03T14:45:02.797Z,55.63
2018-03-03T14:47:30.002Z,42.70
2018-03-03T14:49:57.258Z,41.53
2018-03-03T14:52:25.253Z,47.20
2018-03-03T14:54:51.731Z,51.53
2018-03-03T14:57:18.252Z,47.00
2018-03-03T14:59:45.571Z,43.90
2018-03-03T15:02:12.079Z,53.63
2018-03-03T15:04:38.544Z,53.40
2018-03-03T15:07:05.153Z,44.93
2018-03-03T15:09:31.704Z,54.23
2018-03-03T15:11:58.204Z,42.77
2018-03-03T15:14:24.644Z,36.90
2018-03-03T15:16:51.124Z,68.33
2018-03-03T15:19:17.536Z,49.27
2018-03-03T15:21:45.464Z,58.43
2018-03-03T15:24:11.907Z,53.03
2018-03-03T15:26:38.316Z,58.00
2018-03-03T15:29:04.780Z,59.60
2018-03-03T15:31:31.171Z,60.67
2018-03-03T15:33:58.365Z,64.30
2018-03-03T15:36:24.774Z,63.73
2018-03-03T15:38:51.217Z,60.10
2018-03-03T15:41:17.635Z,65.53
2018-03-03T15:43:44.841Z,60.23
2018-03-03T15:46:11.309Z,62.47
2018-03-03T15:48:38.490Z,56.13
2018-03-03T15:51:05.200Z,71.60
2018-03-03T15:53:32.539Z,67.57
2018-03-03T15:55:59.031Z,66.33
2018-03-03T15:58:26.298Z,59.63
2018-03-03T16:00:52.726Z,54.07
2018-03-03T16:03:19.141Z,34.70
2018-03-03T16:05:46.357Z,55.17
2018-03-03T16:08:12.778Z,46.37
2018-03-03T16:10:39.237Z,62.83
2018-03-03T16:13:05.736Z,52.53
2018-03-03T16:15:32.204Z,47.37
2018-03-03T16:17:59.379Z,54.40
2018-03-03T16:20:25.865Z,65.20
2018-03-03T16:22:53.804Z,57.17
2018-03-03T16:25:21.216Z,58.60
2018-03-03T16:27:47.654Z,58.00
2018-03-03T16:30:14.072Z,52.83
2018-03-03T16:32:40.492Z,52.13
2018-03-03T16:35:06.928Z,55.23
2018-03-03T16:37:33.335Z,48.37
2018-03-03T16:39:59.774Z,52.40
2018-03-03T16:42:26.208Z,51.37
2018-03-03T16:44:52.720Z,51.83
2018-03-03T16:47:19.156Z,63.67
2018-03-03T16:49:45.654Z,60.53
2018-03-03T16:52:12.828Z,58.30
2018-03-03T16:54:40.020Z,51.20
2018-03-03T16:57:06.443Z,58.80
2018-03-03T16:59:32.908Z,56.83
2018-03-03T17:01:59.322Z,53.60
2018-03-03T17:04:25.769Z,52.90
2018-03-03T17:06:52.243Z,53.30
2018-03-03T17:09:18.661Z,57.60
2018-03-03T17:11:49.794Z,56.47
2018-03-03T17:14:16.487Z,50.53
2018-03-03T17:16:42.914Z,56.23
2018-03-03T17:19:10.018Z,65.03
2018-03-03T17:21:36.544Z,99.27
2018-03-03T17:24:02.952Z,112.47
2018-03-03T17:26:29.344Z,114.83
2018-03-03T17:28:56.518Z,90.43
2018-03-03T17:31:22.934Z,81.87
2018-03-03T17:33:49.427Z,69.37
2018-03-03T17:36:15.890Z,57.00
2018-03-03T17:38:43.131Z,58.60
2018-03-03T17:41:09.586Z,60.13
2018-03-03T17:43:36.025Z,63.20
2018-03-03T17:46:03.194Z,32.38
2018-03-03T17:48:30.357Z,49.43
2018-03-03T17:50:57.540Z,49.43
2018-03-03T17:53:23.951Z,54.53
2018-03-03T17:55:50.388Z,51.27
2018-03-03T17:58:16.805Z,44.07
2018-03-03T18:00:43.301Z,51.17
2018-03-03T18:03:09.728Z,48.10
2018-03-03T18:05:36.162Z,42.23
2018-03-03T18:08:02.696Z,49.20
2018-03-03T18:10:29.900Z,37.38
2018-03-03T18:12:57.061Z,32.37
2018-03-03T18:15:27.427Z,33.28
2018-03-03T18:17:53.925Z,27.60
2018-03-03T18:20:22.444Z,48.08
2018-03-03T18:22:48.853Z,40.85
2018-03-03T18:25:15.292Z,35.93
2018-03-03T18:27:41.723Z,26.17
2018-03-03T18:30:08.200Z,38.60
2018-03-03T18:32:34.617Z,33.07
2018-03-03T18:35:01.042Z,42.17
2018-03-03T18:37:27.521Z,36.10
2018-03-03T18:39:55.716Z,33.43
2018-03-03T18:42:22.933Z,37.97
2018-03-03T18:44:49.351Z,29.13
2018-03-03T18:47:15.782Z,39.03
2018-03-03T18:49:42.180Z,33.10
2018-03-03T18:52:08.620Z,32.60
2018-03-03T18:54:35.073Z,30.10
2018-03-03T18:57:01.502Z,34.20
2018-03-03T18:59:27.934Z,44.87
2018-03-03T19:01:54.367Z,37.00
2018-03-03T19:04:20.756Z,38.05
2018-03-03T19:06:47.956Z,29.73
2018-03-03T19:09:14.405Z,38.63
2018-03-03T19:11:40.854Z,49.15
2018-03-03T19:14:08.026Z,41.00
2018-03-03T19:16:34.492Z,31.52
2018-03-03T19:19:00.931Z,25.70
2018-03-03T19:21:27.397Z,37.07
2018-03-03T19:23:53.825Z,36.07
2018-03-03T19:26:20.249Z,45.97
2018-03-03T19:28:46.704Z,42.50
2018-03-03T19:31:13.157Z,48.45
2018-03-03T19:33:39.561Z,46.10
2018-03-03T19:36:05.957Z,46.63
2018-03-03T19:38:32.385Z,48.07
2018-03-03T19:40:58.817Z,31.37
2018-03-03T19:43:26.162Z,37.77
2018-03-03T19:45:53.315Z,47.97
2018-03-03T19:48:19.742Z,37.87
2018-03-03T19:50:46.916Z,43.28
2018-03-03T19:53:13.352Z,46.77
2018-03-03T19:55:39.861Z,50.30
2018-03-03T19:58:07.039Z,51.37
2018-03-03T20:00:33.596Z,36.63
2018-03-03T20:03:00.069Z,35.17
2018-03-03T20:05:26.474Z,22.60
2018-03-03T20:07:53.913Z,29.43
2018-03-03T20:10:20.343Z,36.55
2018-03-03T20:12:46.817Z,30.27
2018-03-03T20:15:13.256Z,30.40
2018-03-03T20:17:39.697Z,24.70
2018-03-03T20:20:06.219Z,22.20
2018-03-03T20:22:32.672Z,47.78
2018-03-03T20:24:59.093Z,35.40
2018-03-03T20:27:25.520Z,32.63
2018-03-03T20:29:51.949Z,26.90
2018-03-03T20:32:18.398Z,40.17
2018-03-03T20:34:44.861Z,53.67
2018-03-03T20:37:11.260Z,46.57
2018-03-03T20:39:37.712Z,35.37
2018-03-03T20:42:04.120Z,33.07
2018-03-03T20:44:30.543Z,36.87
2018-03-03T20:46:56.976Z,56.58
2018-03-03T20:49:23.393Z,38.60
2018-03-03T20:51:49.816Z,56.97
2018-03-03T20:54:16.253Z,37.17
2018-03-03T20:56:42.694Z,61.60
2018-03-03T20:59:09.132Z,68.73
2018-03-03T21:01:35.582Z,41.90
2018-03-03T21:04:05.896Z,60.90
2018-03-03T21:06:32.310Z,38.43
2018-03-03T21:08:58.761Z,45.12
2018-03-03T21:11:27.035Z,54.55
2018-03-03T21:13:53.509Z,49.60
2018-03-03T21:16:19.949Z,35.30
2018-03-03T21:18:46.409Z,30.23
2018-03-03T21:21:13.589Z,19.80
2018-03-03T21:23:40.015Z,21.43
2018-03-03T21:26:06.473Z,83.00
2018-03-03T21:28:32.896Z,64.25
2018-03-03T21:30:59.350Z,57.67
2018-03-03T21:33:25.769Z,44.75
2018-03-03T21:35:52.209Z,70.57
2018-03-03T21:38:18.617Z,78.47
2018-03-03T21:40:45.148Z,67.07
2018-03-03T21:43:11.587Z,94.40
2018-03-03T21:45:38.001Z,76.12
2018-03-03T21:48:05.160Z,69.53
2018-03-03T21:50:32.325Z,73.87
2018-03-03T21:52:58.744Z,90.50
2018-03-03T21:55:25.935Z,81.77
2018-03-03T21:57:52.540Z,81.13
2018-03-03T22:00:19.742Z,44.40
2018-03-03T22:02:46.165Z,79.20
2018-03-03T22:05:12.580Z,84.87
2018-03-03T22:07:38.995Z,63.87
2018-03-03T22:10:05.474Z,66.97
2018-03-03T22:12:32.690Z,78.95
2018-03-03T22:14:59.185Z,99.43
2018-03-03T22:17:26.413Z,82.80
2018-03-03T22:19:52.845Z,66.60
2018-03-03T22:22:19.281Z,53.20
2018-03-03T22:24:45.725Z,84.93
2018-03-03T22:27:13.000Z,102.83
2018-03-03T22:29:39.409Z,87.47
2018-03-03T22:32:05.853Z,71.03
2018-03-03T22:34:32.296Z,66.62
2018-03-03T22:36:58.731Z,96.25
2018-03-03T22:39:25.181Z,73.40
2018-03-03T22:41:51.596Z,89.13
2018-03-03T22:44:18.028Z,35.50
2018-03-03T22:46:44.493Z,55.35
2018-03-03T22:49:10.901Z,65.97
2018-03-03T22:51:37.316Z,83.65
2018-03-03T22:54:03.746Z,76.12
2018-03-03T22:56:30.183Z,100.93
2018-03-03T22:58:57.381Z,79.40
2018-03-03T23:01:23.841Z,93.65
2018-03-03T23:03:54.123Z,97.97
2018-03-03T23:06:20.552Z,105.87
2018-03-03T23:08:46.976Z,101.72
2018-03-03T23:11:14.514Z,112.90
2018-03-03T23:13:40.942Z,107.20
2018-03-03T23:16:07.381Z,95.70
2018-03-03T23:18:33.855Z,108.20
2018-03-03T23:21:01.017Z,103.77
2018-03-03T23:23:28.194Z,94.80
2018-03-03T23:25:54.688Z,96.57
2018-03-03T23:28:21.884Z,95.60
2018-03-03T23:30:48.354Z,101.55
2018-03-03T23:33:18.529Z,97.93
2018-03-03T23:35:44.950Z,104.85
2018-03-03T23:38:12.117Z,93.17
2018-03-03T23:40:38.595Z,88.57
2018-03-03T23:43:05.021Z,97.23
2018-03-03T23:45:31.566Z,96.25
2018-03-03T23:47:58.813Z,99.55
2018-03-03T23:50:25.216Z,103.60
2018-03-03T23:52:51.657Z,100.40
2018-03-03T23:55:18.080Z,102.80
2018-03-03T23:57:44.504Z,93.00
